sensor_id;sensor_type;location;lat;lon;timestamp;pressure;altitude;pressure_sealevel;temperature;humidity
17950;BME280;9100;48.700;9.316;2022-10-22T00:00:47;97464.8;;;15.22;100
17950;BME280;9100;48.700;9.316;2022-10-22T00:01:47;97472.5;;;15.22;100
17950;BME280;9100;48.700;9.316;2022-10-22T00:02:47;97466.7;;;15.2;100
17950;BME280;9100;48.700;9.316;2022-10-22T00:02:57;97473.5;;;15.21;100
17950;BME280;9100;48.700;9.316;2022-10-22T00:03:48;97479.2;;;15.23;100
17950;BME280;9100;48.700;9.316;2022-10-22T00:04:48;97472.5;;;15.22;100
17950;BME280;9100;48.700;9.316;2022-10-22T00:05:47;97472.5;;;15.22;100
17950;BME280;9100;48.700;9.316;2022-10-22T00:06:47;97470.7;;;15.22;100
17950;BME280;9100;48.700;9.316;2022-10-22T00:07:47;97465;;;15.2;100
17950;BME280;9100;48.700;9.316;2022-10-22T00:07:57;97468.3;;;15.21;100
17950;BME280;9100;48.700;9.316;2022-10-22T00:08:47;97467.3;;;15.22;100
17950;BME280;9100;48.700;9.316;2022-10-22T00:09:47;97461.40000000001;;;15.21;100
17950;BME280;9100;48.700;9.316;2022-10-22T00:10:47;97459.79999999999;;;15.2;100
17950;BME280;9100;48.700;9.316;2022-10-22T00:11:47;97462.40000000001;;;15.2;100
17950;BME280;9100;48.700;9.316;2022-10-22T00:12:47;97461.8;;;15.18;100
17950;BME280;9100;48.700;9.316;2022-10-22T00:12:57;97461.8;;;15.18;100
17950;BME280;9100;48.700;9.316;2022-10-22T00:13:47;97465;;;15.2;100
17950;BME280;9100;48.700;9.316;2022-10-22T00:14:48;97460.6;;;15.21;100
17950;BME280;9100;48.700;9.316;2022-10-22T00:15:47;97454.7;;;15.2;100
17950;BME280;9100;48.700;9.316;2022-10-22T00:16:48;97458;;;15.21;100
17950;BME280;9100;48.700;9.316;2022-10-22T00:17:47;97453.09999999999;;;15.19;100
17950;BME280;9100;48.700;9.316;2022-10-22T00:17:57;97459;;;15.2;100
17950;BME280;9100;48.700;9.316;2022-10-22T00:18:47;97454.5;;;15.22;100
17950;BME280;9100;48.700;9.316;2022-10-22T00:19:47;97457.2;;;15.2;100
17950;BME280;9100;48.700;9.316;2022-10-22T00:20:47;97450.7;;;15.18;100
17950;BME280;9100;48.700;9.316;2022-10-22T00:21:47;97458.7;;;15.16;100
17950;BME280;9100;48.700;9.316;2022-10-22T00:22:47;97454.7;;;15.14;100
17950;BME280;9100;48.700;9.316;2022-10-22T00:22:57;97461.5;;;15.15;100
17950;BME280;9100;48.700;9.316;2022-10-22T00:23:47;97464.20000000001;;;15.13;100
17950;BME280;9100;48.700;9.316;2022-10-22T00:24:47;97461.90000000001;;;15.12;100
17950;BME280;9100;48.700;9.316;2022-10-22T00:25:47;97462.09999999999;;;15.1;100
17950;BME280;9100;48.700;9.316;2022-10-22T00:26:47;97460.5;;;15.09;100
17950;BME280;9100;48.700;9.316;2022-10-22T00:27:47;97460.5;;;15.09;100
17950;BME280;9100;48.700;9.316;2022-10-22T00:27:57;97456.3;;;15.08;100
17950;BME280;9100;48.700;9.316;2022-10-22T00:28:47;97453.8;;;15.08;100
17950;BME280;9100;48.700;9.316;2022-10-22T00:29:47;97453.59999999999;;;15.1;100
17950;BME280;9100;48.700;9.316;2022-10-22T00:30:47;97460.5;;;15.09;100
17950;BME280;9100;48.700;9.316;2022-10-22T00:31:47;97462.5;;;15.07;100
17950;BME280;9100;48.700;9.316;2022-10-22T00:32:47;97456.6;;;15.07;100
17950;BME280;9100;48.700;9.316;2022-10-22T00:32:57;97460.1;;;15.05;100
17950;BME280;9100;48.700;9.316;2022-10-22T00:33:47;97459.90000000001;;;15.07;100
17950;BME280;9100;48.700;9.316;2022-10-22T00:34:47;97458.4;;;15.06;100
17950;BME280;9100;48.700;9.316;2022-10-22T00:35:47;97467.1;;;15.05;100
17950;BME280;9100;48.700;9.316;2022-10-22T00:36:48;97463.9;;;15.03;100
17950;BME280;9100;48.700;9.316;2022-10-22T00:37:47;97467.5;;;15.02;100
17950;BME280;9100;48.700;9.316;2022-10-22T00:37:57;97463.9;;;15.03;100
17950;BME280;9100;48.700;9.316;2022-10-22T00:38:47;97457.2;;;15.02;100
17950;BME280;9100;48.700;9.316;2022-10-22T00:39:48;97454.6;;;15.02;100
17950;BME280;9100;48.700;9.316;2022-10-22T00:40:47;97449.7;;;15;100
17950;BME280;9100;48.700;9.316;2022-10-22T00:41:48;97456.6;;;15;100
17950;BME280;9100;48.700;9.316;2022-10-22T00:42:47;97446.5;;;14.98;100
17950;BME280;9100;48.700;9.316;2022-10-22T00:42:57;97444.2;;;14.97;100
17950;BME280;9100;48.700;9.316;2022-10-22T00:43:56;97444;;;14.98;100
17950;BME280;9100;48.700;9.316;2022-10-22T00:45:05;97439.8;;;14.97;100
17950;BME280;9100;48.700;9.316;2022-10-22T00:45:48;97437.5;;;14.96;100
17950;BME280;9100;48.700;9.316;2022-10-22T00:46:47;97439.4;;;14.94;100
17950;BME280;9100;48.700;9.316;2022-10-22T00:47:49;97440.4;;;14.93;100
17950;BME280;9100;48.700;9.316;2022-10-22T00:47:58;97433.7;;;14.92;100
17950;BME280;9100;48.700;9.316;2022-10-22T00:48:47;97437.09999999999;;;14.92;100
17950;BME280;9100;48.700;9.316;2022-10-22T00:49:47;97436.3;;;14.92;100
17950;BME280;9100;48.700;9.316;2022-10-22T00:50:48;97436.5;;;14.9;100
17950;BME280;9100;48.700;9.316;2022-10-22T00:51:47;97433.1;;;14.9;100
17950;BME280;9100;48.700;9.316;2022-10-22T00:52:48;97432.6;;;14.88;100
17950;BME280;9100;48.700;9.316;2022-10-22T00:52:57;97428.4;;;14.87;100
17950;BME280;9100;48.700;9.316;2022-10-22T00:53:48;97424.1;;;14.87;100
17950;BME280;9100;48.700;9.316;2022-10-22T00:54:48;97417.3;;;14.86;100
17950;BME280;9100;48.700;9.316;2022-10-22T00:55:48;97419.1;;;14.86;100
17950;BME280;9100;48.700;9.316;2022-10-22T00:56:47;97418.5;;;14.84;100
17950;BME280;9100;48.700;9.316;2022-10-22T00:57:47;97422.90000000001;;;14.83;100
17950;BME280;9100;48.700;9.316;2022-10-22T00:57:57;97410.79999999999;;;14.84;100
17950;BME280;9100;48.700;9.316;2022-10-22T00:58:48;97420.1;;;14.85;100
17950;BME280;9100;48.700;9.316;2022-10-22T00:59:47;97412.40000000001;;;14.85;100
17950;BME280;9100;48.700;9.316;2022-10-22T01:00:48;97419.3;;;14.84;100
17950;BME280;9100;48.700;9.316;2022-10-22T01:01:47;97417.7;;;14.83;100
17950;BME280;9100;48.700;9.316;2022-10-22T01:02:48;97415;;;14.85;100
17950;BME280;9100;48.700;9.316;2022-10-22T01:02:57;97414.20000000001;;;14.84;100
17950;BME280;9100;48.700;9.316;2022-10-22T01:03:48;97409.79999999999;;;14.85;100
17950;BME280;9100;48.700;9.316;2022-10-22T01:04:48;97416.5;;;14.86;100
17950;BME280;9100;48.700;9.316;2022-10-22T01:05:57;97418.1;;;14.87;100
17950;BME280;9100;48.700;9.316;2022-10-22T01:06:47;97421.7;;;14.86;100
17950;BME280;9100;48.700;9.316;2022-10-22T01:07:48;97426;;;14.85;100
17950;BME280;9100;48.700;9.316;2022-10-22T01:07:57;97428.4;;;14.87;100
17950;BME280;9100;48.700;9.316;2022-10-22T01:08:50;97428.4;;;14.87;100
17950;BME280;9100;48.700;9.316;2022-10-22T01:09:49;97430.2;;;14.86;100
17950;BME280;9100;48.700;9.316;2022-10-22T01:10:50;97434.5;;;14.86;100
17950;BME280;9100;48.700;9.316;2022-10-22T01:11:50;97431.4;;;14.84;100
17950;BME280;9100;48.700;9.316;2022-10-22T01:12:49;97434.79999999999;;;14.84;100
17950;BME280;9100;48.700;9.316;2022-10-22T01:13:00;97431.2;;;14.85;100
17950;BME280;9100;48.700;9.316;2022-10-22T01:13:48;97431;;;14.87;100
17950;BME280;9100;48.700;9.316;2022-10-22T01:14:51;97432.6;;;14.88;100
17950;BME280;9100;48.700;9.316;2022-10-22T01:15:49;97437.7;;;14.88;100
17950;BME280;9100;48.700;9.316;2022-10-22T01:16:49;97439.70000000001;;;14.86;100
17950;BME280;9100;48.700;9.316;2022-10-22T01:17:49;97435;;;14.83;100
17950;BME280;9100;48.700;9.316;2022-10-22T01:17:58;97438.09999999999;;;14.85;100
17950;BME280;9100;48.700;9.316;2022-10-22T01:18:48;97435.6;;;14.85;100
17950;BME280;9100;48.700;9.316;2022-10-22T01:19:50;97440.7;;;14.85;100
17950;BME280;9100;48.700;9.316;2022-10-22T01:20:54;97438.3;;;14.83;100
17950;BME280;9100;48.700;9.316;2022-10-22T01:21:49;97445.5;;;14.81;100
17950;BME280;9100;48.700;9.316;2022-10-22T01:22:50;97441.3;;;14.8;100
17950;BME280;9100;48.700;9.316;2022-10-22T01:22:58;97434.6;;;14.79;100
17950;BME280;9100;48.700;9.316;2022-10-22T01:24:52;97440.7;;;14.78;100
17950;BME280;9100;48.700;9.316;2022-10-22T01:24:55;97438;;;14.8;100
17950;BME280;9100;48.700;9.316;2022-10-22T01:25:49;97440.20000000001;;;14.76;100
17950;BME280;9100;48.700;9.316;2022-10-22T01:26:53;97428.5;;;14.74;100
17950;BME280;9100;48.700;9.316;2022-10-22T01:27:51;97421.2;;;14.71;100
17950;BME280;9100;48.700;9.316;2022-10-22T01:28:00;97425.40000000001;;;14.72;100
17950;BME280;9100;48.700;9.316;2022-10-22T01:28:51;97427;;;14.73;100
17950;BME280;9100;48.700;9.316;2022-10-22T01:29:48;97424.59999999999;;;14.71;100
17950;BME280;9100;48.700;9.316;2022-10-22T01:30:48;97427.4;;;14.7;100
17950;BME280;9100;48.700;9.316;2022-10-22T01:31:49;97425.8;;;14.69;100
17950;BME280;9100;48.700;9.316;2022-10-22T01:32:48;97430.6;;;14.65;100
17950;BME280;9100;48.700;9.316;2022-10-22T01:32:57;97421.1;;;14.66;100
17950;BME280;9100;48.700;9.316;2022-10-22T01:33:47;97421.90000000001;;;14.66;100
17950;BME280;9100;48.700;9.316;2022-10-22T01:34:48;97417.7;;;14.65;100
17950;BME280;9100;48.700;9.316;2022-10-22T01:35:47;97417.9;;;14.64;100
17950;BME280;9100;48.700;9.316;2022-10-22T01:36:47;97415.7;;;14.61;100
17950;BME280;9100;48.700;9.316;2022-10-22T01:37:48;97422.90000000001;;;14.59;100
17950;BME280;9100;48.700;9.316;2022-10-22T01:37:57;97417.8;;;14.59;100
17950;BME280;9100;48.700;9.316;2022-10-22T01:38:47;97415.20000000001;;;14.59;100
17950;BME280;9100;48.700;9.316;2022-10-22T01:39:47;97419.7;;;14.56;100
17950;BME280;9100;48.700;9.316;2022-10-22T01:40:47;97419.7;;;14.56;100
17950;BME280;9100;48.700;9.316;2022-10-22T01:41:47;97415.59999999999;;;14.55;100
17950;BME280;9100;48.700;9.316;2022-10-22T01:42:55;97419.2;;;14.54;100
17950;BME280;9100;48.700;9.316;2022-10-22T01:42:57;97418.4;;;14.54;100
17950;BME280;9100;48.700;9.316;2022-10-22T01:43:48;97407.3;;;14.53;100
17950;BME280;9100;48.700;9.316;2022-10-22T01:44:48;97412.40000000001;;;14.53;100
17950;BME280;9100;48.700;9.316;2022-10-22T01:45:49;97401.4;;;14.53;100
17950;BME280;9100;48.700;9.316;2022-10-22T01:46:47;97400.59999999999;;;14.52;100
17950;BME280;9100;48.700;9.316;2022-10-22T01:47:50;97400;;;14.5;100
17950;BME280;9100;48.700;9.316;2022-10-22T01:47:59;97396.6;;;14.5;100
17950;BME280;9100;48.700;9.316;2022-10-22T01:48:51;97387.09999999999;;;14.5;100
17950;BME280;9100;48.700;9.316;2022-10-22T01:49:52;97386.3;;;14.5;100
17950;BME280;9100;48.700;9.316;2022-10-22T01:50:52;97378.8;;;14.48;100
17950;BME280;9100;48.700;9.316;2022-10-22T01:51:49;97379.8;;;14.47;100
17950;BME280;9100;48.700;9.316;2022-10-22T01:52:51;97377.5;;;14.46;100
17950;BME280;9100;48.700;9.316;2022-10-22T01:53:01;97374.90000000001;;;14.46;100
17950;BME280;9100;48.700;9.316;2022-10-22T01:53:49;97373.29999999999;;;14.45;100
17950;BME280;9100;48.700;9.316;2022-10-22T01:54:49;97375.3;;;14.43;100
17950;BME280;9100;48.700;9.316;2022-10-22T01:55:51;97371.40000000001;;;14.4;100
17950;BME280;9100;48.700;9.316;2022-10-22T01:56:51;97375.5;;;14.41;100
17950;BME280;9100;48.700;9.316;2022-10-22T01:57:48;97373.2;;;14.4;100
17950;BME280;9100;48.700;9.316;2022-10-22T01:58:01;97375;;;14.39;100
17950;BME280;9100;48.700;9.316;2022-10-22T01:58:51;97375;;;14.39;100
17950;BME280;9100;48.700;9.316;2022-10-22T01:59:49;97369.8;;;14.39;100
17950;BME280;9100;48.700;9.316;2022-10-22T02:00:49;97369;;;14.39;100
17950;BME280;9100;48.700;9.316;2022-10-22T02:01:48;97369.8;;;14.39;100
17950;BME280;9100;48.700;9.316;2022-10-22T02:02:48;97375.2;;;14.38;100
17950;BME280;9100;48.700;9.316;2022-10-22T02:02:57;97371.8;;;14.37;100
17950;BME280;9100;48.700;9.316;2022-10-22T02:03:50;97376.5;;;14.4;100
17950;BME280;9100;48.700;9.316;2022-10-22T02:04:48;97367.2;;;14.39;100
17950;BME280;9100;48.700;9.316;2022-10-22T02:05:48;97371.40000000001;;;14.4;100
17950;BME280;9100;48.700;9.316;2022-10-22T02:06:48;97368.2;;;14.38;100
17950;BME280;9100;48.700;9.316;2022-10-22T02:07:48;97371.8;;;14.37;100
17950;BME280;9100;48.700;9.316;2022-10-22T02:07:58;97370.2;;;14.36;100
17950;BME280;9100;48.700;9.316;2022-10-22T02:08:48;97372.6;;;14.38;100
17950;BME280;9100;48.700;9.316;2022-10-22T02:09:48;97380.3;;;14.38;100
17950;BME280;9100;48.700;9.316;2022-10-22T02:10:47;97390.8;;;14.36;100
17950;BME280;9100;48.700;9.316;2022-10-22T02:11:47;97396.7;;;14.37;100
17950;BME280;9100;48.700;9.316;2022-10-22T02:12:48;97399.5;;;14.35;100
17950;BME280;9100;48.700;9.316;2022-10-22T02:12:57;97401.09999999999;;;14.36;100
17950;BME280;9100;48.700;9.316;2022-10-22T02:13:48;97401.09999999999;;;14.36;100
17950;BME280;9100;48.700;9.316;2022-10-22T02:14:48;97389.20000000001;;;14.35;100
17950;BME280;9100;48.700;9.316;2022-10-22T02:15:48;97399.5;;;14.35;100
17950;BME280;9100;48.700;9.316;2022-10-22T02:16:48;97406.4;;;14.35;100
17950;BME280;9100;48.700;9.316;2022-10-22T02:17:48;97407.4;;;14.34;100
17950;BME280;9100;48.700;9.316;2022-10-22T02:17:57;97412.5;;;14.34;100
17950;BME280;9100;48.700;9.316;2022-10-22T02:18:48;97414.20000000001;;;14.35;100
17950;BME280;9100;48.700;9.316;2022-10-22T02:19:49;97412.40000000001;;;14.35;100
17950;BME280;9100;48.700;9.316;2022-10-22T02:20:48;97402.09999999999;;;14.35;100
17950;BME280;9100;48.700;9.316;2022-10-22T02:21:48;97399.7;;;14.34;100
17950;BME280;9100;48.700;9.316;2022-10-22T02:22:48;97405.6;;;14.34;100
17950;BME280;9100;48.700;9.316;2022-10-22T02:22:57;97403.09999999999;;;14.34;100
17950;BME280;9100;48.700;9.316;2022-10-22T02:23:47;97398.7;;;14.35;100
17950;BME280;9100;48.700;9.316;2022-10-22T02:24:48;97418.5;;;14.34;100
17950;BME280;9100;48.700;9.316;2022-10-22T02:25:48;97423.7;;;14.34;100
17950;BME280;9100;48.700;9.316;2022-10-22T02:26:49;97436.5;;;14.34;100
17950;BME280;9100;48.700;9.316;2022-10-22T02:27:48;97441.7;;;14.34;100
17950;BME280;9100;48.700;9.316;2022-10-22T02:27:57;97436.5;;;14.34;100
17950;BME280;9100;48.700;9.316;2022-10-22T02:28:49;97436.3;;;14.36;100
17950;BME280;9100;48.700;9.316;2022-10-22T02:29:48;97437.09999999999;;;14.36;100
17950;BME280;9100;48.700;9.316;2022-10-22T02:30:49;97336.2;;;13.72;100
17950;BME280;9100;48.700;9.316;2022-10-22T02:31:48;97432.7;;;14.37;100
17950;BME280;9100;48.700;9.316;2022-10-22T02:32:49;97432.7;;;14.37;100
17950;BME280;9100;48.700;9.316;2022-10-22T02:32:58;97426.8;;;14.36;100
17950;BME280;9100;48.700;9.316;2022-10-22T02:33:48;97419.7;;;14.38;100
17950;BME280;9100;48.700;9.316;2022-10-22T02:34:48;97418.9;;;14.38;100
17950;BME280;9100;48.700;9.316;2022-10-22T02:35:47;97418.1;;;14.37;100
17950;BME280;9100;48.700;9.316;2022-10-22T02:36:47;97425.2;;;14.35;100
17950;BME280;9100;48.700;9.316;2022-10-22T02:37:47;97426.8;;;14.36;100
17950;BME280;9100;48.700;9.316;2022-10-22T02:37:57;97428.8;;;14.34;100
17950;BME280;9100;48.700;9.316;2022-10-22T02:38:48;97429.4;;;14.36;100
17950;BME280;9100;48.700;9.316;2022-10-22T02:39:47;97436.90000000001;;;14.38;100
17950;BME280;9100;48.700;9.316;2022-10-22T02:40:47;97436.3;;;14.36;100
17950;BME280;9100;48.700;9.316;2022-10-22T02:41:47;97436.3;;;14.36;100
17950;BME280;9100;48.700;9.316;2022-10-22T02:42:48;97434.7;;;14.35;100
17950;BME280;9100;48.700;9.316;2022-10-22T02:42:57;97433.7;;;14.36;100
17950;BME280;9100;48.700;9.316;2022-10-22T02:43:49;97435.5;;;14.35;100
17950;BME280;9100;48.700;9.316;2022-10-22T02:44:47;97445.8;;;14.35;100
17950;BME280;9100;48.700;9.316;2022-10-22T02:45:48;97442.4;;;14.35;100
17950;BME280;9100;48.700;9.316;2022-10-22T02:46:48;97433.1;;;14.34;100
17950;BME280;9100;48.700;9.316;2022-10-22T02:47:48;97435.5;;;14.35;100
17950;BME280;9100;48.700;9.316;2022-10-22T02:47:57;97440.7;;;14.35;100
17950;BME280;9100;48.700;9.316;2022-10-22T02:48:48;97436.3;;;14.36;100
17950;BME280;9100;48.700;9.316;2022-10-22T02:49:48;97451.5;;;14.37;100
17950;BME280;9100;48.700;9.316;2022-10-22T02:50:47;97450;;;14.36;100
17950;BME280;9100;48.700;9.316;2022-10-22T02:51:47;97451.8;;;14.36;100
17950;BME280;9100;48.700;9.316;2022-10-22T02:52:48;97449;;;14.37;100
17950;BME280;9100;48.700;9.316;2022-10-22T02:52:57;97446.6;;;14.36;100
17950;BME280;9100;48.700;9.316;2022-10-22T02:53:47;97446.40000000001;;;14.37;100
17950;BME280;9100;48.700;9.316;2022-10-22T02:54:47;97440.3;;;14.38;100
17950;BME280;9100;48.700;9.316;2022-10-22T02:55:47;97439.5;;;14.38;100
17950;BME280;9100;48.700;9.316;2022-10-22T02:56:47;97433.5;;;14.37;100
17950;BME280;9100;48.700;9.316;2022-10-22T02:57:47;97441.2;;;14.37;100
17950;BME280;9100;48.700;9.316;2022-10-22T02:57:57;97443.8;;;14.37;100
17950;BME280;9100;48.700;9.316;2022-10-22T02:58:47;97437.09999999999;;;14.36;100
17950;BME280;9100;48.700;9.316;2022-10-22T02:59:47;97433.90000000001;;;14.34;100
17950;BME280;9100;48.700;9.316;2022-10-22T03:00:48;97442.6;;;14.33;100
17950;BME280;9100;48.700;9.316;2022-10-22T03:01:48;97448.2;;;14.3;100
17950;BME280;9100;48.700;9.316;2022-10-22T03:02:47;97437.3;;;14.28;100
17950;BME280;9100;48.700;9.316;2022-10-22T03:02:57;97442.5;;;14.28;100
17950;BME280;9100;48.700;9.316;2022-10-22T03:03:48;97439.3;;;14.26;100
17950;BME280;9100;48.700;9.316;2022-10-22T03:04:47;97442.7;;;14.27;100
17950;BME280;9100;48.700;9.316;2022-10-22T03:05:48;97452.09999999999;;;14.26;100
17950;BME280;9100;48.700;9.316;2022-10-22T03:06:47;97453.2;;;14.25;100
17950;BME280;9100;48.700;9.316;2022-10-22T03:07:48;97456.7;;;14.24;100
17950;BME280;9100;48.700;9.316;2022-10-22T03:07:57;97455.7;;;14.25;100
17950;BME280;9100;48.700;9.316;2022-10-22T03:08:47;97455.7;;;14.25;100
17950;BME280;9100;48.700;9.316;2022-10-22T03:09:48;97456.7;;;14.24;100
17950;BME280;9100;48.700;9.316;2022-10-22T03:10:47;97450.8;;;14.24;100
17950;BME280;9100;48.700;9.316;2022-10-22T03:11:47;97452.59999999999;;;14.23;100
17950;BME280;9100;48.700;9.316;2022-10-22T03:12:47;97445.3;;;14.2;100
17950;BME280;9100;48.700;9.316;2022-10-22T03:12:57;97450.2;;;14.22;100
17950;BME280;9100;48.700;9.316;2022-10-22T03:13:47;97443.5;;;14.21;100
17950;BME280;9100;48.700;9.316;2022-10-22T03:14:47;97446.3;;;14.19;100
17950;BME280;9100;48.700;9.316;2022-10-22T03:15:48;97445.5;;;14.19;100
17950;BME280;9100;48.700;9.316;2022-10-22T03:16:48;97448.29999999999;;;14.17;100
17950;BME280;9100;48.700;9.316;2022-10-22T03:17:47;97445.9;;;14.16;100
17950;BME280;9100;48.700;9.316;2022-10-22T03:17:57;97445.1;;;14.15;100
17950;BME280;9100;48.700;9.316;2022-10-22T03:18:48;97443.1;;;14.17;100
17950;BME280;9100;48.700;9.316;2022-10-22T03:19:47;97439.5;;;14.18;100
17950;BME280;9100;48.700;9.316;2022-10-22T03:20:47;97438;;;14.17;100
17950;BME280;9100;48.700;9.316;2022-10-22T03:21:48;97431.3;;;14.16;100
17950;BME280;9100;48.700;9.316;2022-10-22T03:22:47;97435.79999999999;;;14.14;100
17950;BME280;9100;48.700;9.316;2022-10-22T03:22:57;97428.09999999999;;;14.14;100
17950;BME280;9100;48.700;9.316;2022-10-22T03:23:47;97432.2;;;14.15;100
17950;BME280;9100;48.700;9.316;2022-10-22T03:24:49;97436.40000000001;;;14.16;100
17950;BME280;9100;48.700;9.316;2022-10-22T03:25:47;97438.2;;;14.16;100
17950;BME280;9100;48.700;9.316;2022-10-22T03:26:47;97430.5;;;14.16;100
17950;BME280;9100;48.700;9.316;2022-10-22T03:27:47;97421.90000000001;;;14.15;100
17950;BME280;9100;48.700;9.316;2022-10-22T03:27:57;97423.5;;;14.16;100
17950;BME280;9100;48.700;9.316;2022-10-22T03:28:47;97421.2;;;14.15;100
17950;BME280;9100;48.700;9.316;2022-10-22T03:29:47;97414.20000000001;;;14.15;100
17950;BME280;9100;48.700;9.316;2022-10-22T03:30:47;97417.6;;;14.16;100
17950;BME280;9100;48.700;9.316;2022-10-22T03:31:47;97416.2;;;14.13;100
17950;BME280;9100;48.700;9.316;2022-10-22T03:32:47;97413.7;;;14.13;100
17950;BME280;9100;48.700;9.316;2022-10-22T03:32:57;97411.1;;;14.13;100
17950;BME280;9100;48.700;9.316;2022-10-22T03:33:47;97409.1;;;14.15;100
17950;BME280;9100;48.700;9.316;2022-10-22T03:34:47;97413.4;;;14.15;100
17950;BME280;9100;48.700;9.316;2022-10-22T03:35:47;97404;;;14.15;100
17950;BME280;9100;48.700;9.316;2022-10-22T03:36:47;97410.7;;;14.16;100
17950;BME280;9100;48.700;9.316;2022-10-22T03:37:47;97407.3;;;14.16;100
17950;BME280;9100;48.700;9.316;2022-10-22T03:37:58;97407.3;;;14.16;100
17950;BME280;9100;48.700;9.316;2022-10-22T03:38:48;97406.1;;;14.18;100
17950;BME280;9100;48.700;9.316;2022-10-22T03:39:47;97391.7;;;14.17;100
17950;BME280;9100;48.700;9.316;2022-10-22T03:40:47;97385;;;14.16;100
17950;BME280;9100;48.700;9.316;2022-10-22T03:41:47;97388.5;;;14.15;100
17950;BME280;9100;48.700;9.316;2022-10-22T03:42:47;97382.6;;;14.15;100
17950;BME280;9100;48.700;9.316;2022-10-22T03:42:57;97395.3;;;14.16;100
17950;BME280;9100;48.700;9.316;2022-10-22T03:43:47;97378;;;14.17;100
17950;BME280;9100;48.700;9.316;2022-10-22T03:44:48;97386.5;;;14.17;100
17950;BME280;9100;48.700;9.316;2022-10-22T03:45:47;97394.5;;;14.16;100
17950;BME280;9100;48.700;9.316;2022-10-22T03:46:47;97402;;;14.17;100
17950;BME280;9100;48.700;9.316;2022-10-22T03:47:47;97403;;;14.16;100
17950;BME280;9100;48.700;9.316;2022-10-22T03:47:57;97407.1;;;14.17;100
17950;BME280;9100;48.700;9.316;2022-10-22T03:48:47;97402.8;;;14.18;100
17950;BME280;9100;48.700;9.316;2022-10-22T03:49:47;97406.3;;;14.17;100
17950;BME280;9100;48.700;9.316;2022-10-22T03:50:48;97409.7;;;14.17;100
17950;BME280;9100;48.700;9.316;2022-10-22T03:51:47;97415;;;14.16;100
17950;BME280;9100;48.700;9.316;2022-10-22T03:52:48;97409.1;;;14.15;100
17950;BME280;9100;48.700;9.316;2022-10-22T03:52:57;97405.5;;;14.16;100
17950;BME280;9100;48.700;9.316;2022-10-22T03:53:47;97410.29999999999;;;14.19;100
17950;BME280;9100;48.700;9.316;2022-10-22T03:54:48;97403.5;;;14.18;100
17950;BME280;9100;48.700;9.316;2022-10-22T03:55:47;97402.8;;;14.18;100
17950;BME280;9100;48.700;9.316;2022-10-22T03:56:47;97408.7;;;14.18;100
17950;BME280;9100;48.700;9.316;2022-10-22T03:57:47;97414.8;;;14.17;100
17950;BME280;9100;48.700;9.316;2022-10-22T03:57:57;97409.7;;;14.17;100
17950;BME280;9100;48.700;9.316;2022-10-22T03:58:47;97409.5;;;14.19;100
17950;BME280;9100;48.700;9.316;2022-10-22T03:59:47;97423.90000000001;;;14.2;100
17950;BME280;9100;48.700;9.316;2022-10-22T04:00:48;97424.1;;;14.18;100
17950;BME280;9100;48.700;9.316;2022-10-22T04:01:48;97419.8;;;14.19;100
17950;BME280;9100;48.700;9.316;2022-10-22T04:02:48;97419.8;;;14.19;100
17950;BME280;9100;48.700;9.316;2022-10-22T04:02:57;97424.1;;;14.18;100
17950;BME280;9100;48.700;9.316;2022-10-22T04:03:48;97416.2;;;14.2;100
17950;BME280;9100;48.700;9.316;2022-10-22T04:04:47;97421.1;;;14.21;100
17950;BME280;9100;48.700;9.316;2022-10-22T04:05:47;97406.7;;;14.2;100
17950;BME280;9100;48.700;9.316;2022-10-22T04:06:48;97406.7;;;14.2;100
17950;BME280;9100;48.700;9.316;2022-10-22T04:07:47;97400;;;14.19;100
17950;BME280;9100;48.700;9.316;2022-10-22T04:07:57;97402.5;;;14.19;100
17950;BME280;9100;48.700;9.316;2022-10-22T04:08:48;97403.09999999999;;;14.21;100
17950;BME280;9100;48.700;9.316;2022-10-22T04:09:48;97408.3;;;14.21;100
17950;BME280;9100;48.700;9.316;2022-10-22T04:10:49;97407.3;;;14.22;100
17950;BME280;9100;48.700;9.316;2022-10-22T04:11:48;97409.1;;;14.22;100
17950;BME280;9100;48.700;9.316;2022-10-22T04:12:48;97407.5;;;14.21;100
17950;BME280;9100;48.700;9.316;2022-10-22T04:12:57;97415.20000000001;;;14.21;100
17950;BME280;9100;48.700;9.316;2022-10-22T04:13:48;97416;;;14.21;100
17950;BME280;9100;48.700;9.316;2022-10-22T04:14:48;97410.90000000001;;;14.21;100
17950;BME280;9100;48.700;9.316;2022-10-22T04:15:48;97421.1;;;14.21;100
17950;BME280;9100;48.700;9.316;2022-10-22T04:16:47;97418.6;;;14.21;100
17950;BME280;9100;48.700;9.316;2022-10-22T04:17:47;97411;;;14.2;100
17950;BME280;9100;48.700;9.316;2022-10-22T04:17:57;97414.20000000001;;;14.22;100
17950;BME280;9100;48.700;9.316;2022-10-22T04:18:48;97405.7;;;14.21;100
17950;BME280;9100;48.700;9.316;2022-10-22T04:19:48;97415.8;;;14.23;100
17950;BME280;9100;48.700;9.316;2022-10-22T04:20:48;97405.5;;;14.23;100
17950;BME280;9100;48.700;9.316;2022-10-22T04:21:48;97412.59999999999;;;14.21;100
17950;BME280;9100;48.700;9.316;2022-10-22T04:22:48;97360.2;;;13.84;100
17950;BME280;9100;48.700;9.316;2022-10-22T04:22:57;97420.3;;;14.21;100
17950;BME280;9100;48.700;9.316;2022-10-22T04:23:49;97422.1;;;14.2;100
17950;BME280;9100;48.700;9.316;2022-10-22T04:24:47;97424.5;;;14.22;100
17950;BME280;9100;48.700;9.316;2022-10-22T04:25:48;97424.5;;;14.22;100
17950;BME280;9100;48.700;9.316;2022-10-22T04:26:48;97421.1;;;14.21;100
17950;BME280;9100;48.700;9.316;2022-10-22T04:27:48;97432.4;;;14.2;100
17950;BME280;9100;48.700;9.316;2022-10-22T04:27:57;97429.8;;;14.2;100
17950;BME280;9100;48.700;9.316;2022-10-22T04:28:48;97437.59999999999;;;14.2;100
17950;BME280;9100;48.700;9.316;2022-10-22T04:29:48;97434.2;;;14.2;100
17950;BME280;9100;48.700;9.316;2022-10-22T04:30:47;97441.09999999999;;;14.19;100
17950;BME280;9100;48.700;9.316;2022-10-22T04:31:48;97441.09999999999;;;14.19;100
17950;BME280;9100;48.700;9.316;2022-10-22T04:32:47;97445.7;;;14.17;100
17950;BME280;9100;48.700;9.316;2022-10-22T04:32:57;97444.7;;;14.18;100
17950;BME280;9100;48.700;9.316;2022-10-22T04:33:50;97440.5;;;14.17;100